sensor_id;sensor_type;location;lat;lon;timestamp;temperature;humidity
6752;DHT22;3413;47.680;9.166;2023-10-08T00:00:32;18.20;75.00
6752;DHT22;3413;47.680;9.166;2023-10-08T00:05:45;18.20;75.50
6752;DHT22;3413;47.680;9.166;2023-10-08T00:10:48;18.20;74.90
6752;DHT22;3413;47.680;9.166;2023-10-08T00:15:49;18.20;74.80
6752;DHT22;3413;47.680;9.166;2023-10-08T00:20:55;18.20;74.90
6752;DHT22;3413;47.680;9.166;2023-10-08T00:26:01;18.10;74.80
6752;DHT22;3413;47.680;9.166;2023-10-08T00:31:06;18.00;74.70
6752;DHT22;3413;47.680;9.166;2023-10-08T00:36:13;17.90;74.70
6752;DHT22;3413;47.680;9.166;2023-10-08T00:41:21;17.80;74.70
6752;DHT22;3413;47.680;9.166;2023-10-08T00:46:23;17.80;74.80
6752;DHT22;3413;47.680;9.166;2023-10-08T00:51:28;17.70;74.80
6752;DHT22;3413;47.680;9.166;2023-10-08T00:56:42;17.70;74.90
6752;DHT22;3413;47.680;9.166;2023-10-08T01:01:59;17.70;74.90
6752;DHT22;3413;47.680;9.166;2023-10-08T01:07:08;17.60;74.80
6752;DHT22;3413;47.680;9.166;2023-10-08T01:12:22;17.60;74.70
6752;DHT22;3413;47.680;9.166;2023-10-08T01:17:37;17.50;74.70
6752;DHT22;3413;47.680;9.166;2023-10-08T01:22:48;17.50;74.70
6752;DHT22;3413;47.680;9.166;2023-10-08T01:27:58;17.40;74.50
6752;DHT22;3413;47.680;9.166;2023-10-08T01:33:10;17.20;74.50
6752;DHT22;3413;47.680;9.166;2023-10-08T01:38:17;17.00;74.50
6752;DHT22;3413;47.680;9.166;2023-10-08T01:43:25;17.00;74.60
6752;DHT22;3413;47.680;9.166;2023-10-08T01:48:29;17.00;74.50
6752;DHT22;3413;47.680;9.166;2023-10-08T01:53:38;17.00;74.50
6752;DHT22;3413;47.680;9.166;2023-10-08T01:58:40;17.00;74.50
6752;DHT22;3413;47.680;9.166;2023-10-08T02:03:42;17.00;74.50
6752;DHT22;3413;47.680;9.166;2023-10-08T02:08:44;17.00;74.50
6752;DHT22;3413;47.680;9.166;2023-10-08T02:13:46;17.00;74.30
6752;DHT22;3413;47.680;9.166;2023-10-08T02:18:48;16.90;74.30
6752;DHT22;3413;47.680;9.166;2023-10-08T02:23:52;16.80;74.20
6752;DHT22;3413;47.680;9.166;2023-10-08T02:28:54;16.90;74.30
6752;DHT22;3413;47.680;9.166;2023-10-08T02:33:56;16.80;74.30
6752;DHT22;3413;47.680;9.166;2023-10-08T02:39:00;16.80;74.30
6752;DHT22;3413;47.680;9.166;2023-10-08T02:44:08;16.80;74.40
6752;DHT22;3413;47.680;9.166;2023-10-08T02:49:14;16.80;74.40
6752;DHT22;3413;47.680;9.166;2023-10-08T02:54:22;16.80;74.30
6752;DHT22;3413;47.680;9.166;2023-10-08T02:59:33;16.70;74.30
6752;DHT22;3413;47.680;9.166;2023-10-08T03:04:46;16.60;74.20
6752;DHT22;3413;47.680;9.166;2023-10-08T03:09:49;16.60;74.10
6752;DHT22;3413;47.680;9.166;2023-10-08T03:14:52;16.50;74.10
6752;DHT22;3413;47.680;9.166;2023-10-08T03:20:04;16.50;74.20
6752;DHT22;3413;47.680;9.166;2023-10-08T03:25:27;16.40;74.10
6752;DHT22;3413;47.680;9.166;2023-10-08T03:30:30;16.40;74.20
6752;DHT22;3413;47.680;9.166;2023-10-08T03:35:34;16.30;74.30
6752;DHT22;3413;47.680;9.166;2023-10-08T03:40:39;16.30;74.30
6752;DHT22;3413;47.680;9.166;2023-10-08T03:45:47;16.30;74.30
6752;DHT22;3413;47.680;9.166;2023-10-08T03:50:55;16.40;74.30
6752;DHT22;3413;47.680;9.166;2023-10-08T03:56:08;16.30;74.20
6752;DHT22;3413;47.680;9.166;2023-10-08T04:01:10;16.30;74.10
6752;DHT22;3413;47.680;9.166;2023-10-08T04:06:20;16.20;74.00
6752;DHT22;3413;47.680;9.166;2023-10-08T04:11:30;16.10;74.00
6752;DHT22;3413;47.680;9.166;2023-10-08T04:16:37;16.00;74.10
6752;DHT22;3413;47.680;9.166;2023-10-08T04:21:39;16.00;74.10
6752;DHT22;3413;47.680;9.166;2023-10-08T04:26:44;16.10;74.30
6752;DHT22;3413;47.680;9.166;2023-10-08T04:31:46;16.10;74.30
6752;DHT22;3413;47.680;9.166;2023-10-08T04:36:56;16.00;74.10
6752;DHT22;3413;47.680;9.166;2023-10-08T04:42:02;16.00;74.20
6752;DHT22;3413;47.680;9.166;2023-10-08T04:47:11;16.10;74.30
6752;DHT22;3413;47.680;9.166;2023-10-08T04:52:33;16.10;74.30
6752;DHT22;3413;47.680;9.166;2023-10-08T04:57:36;16.10;74.30
6752;DHT22;3413;47.680;9.166;2023-10-08T05:02:38;16.10;74.30
6752;DHT22;3413;47.680;9.166;2023-10-08T05:07:52;16.10;74.30
6752;DHT22;3413;47.680;9.166;2023-10-08T05:12:54;16.00;74.10
6752;DHT22;3413;47.680;9.166;2023-10-08T05:18:23;16.00;74.20
6752;DHT22;3413;47.680;9.166;2023-10-08T05:23:26;16.00;74.30
6752;DHT22;3413;47.680;9.166;2023-10-08T05:28:36;15.90;74.20
6752;DHT22;3413;47.680;9.166;2023-10-08T05:33:38;15.90;74.30
6752;DHT22;3413;47.680;9.166;2023-10-08T05:38:52;15.90;74.40
6752;DHT22;3413;47.680;9.166;2023-10-08T05:44:03;15.80;74.20
6752;DHT22;3413;47.680;9.166;2023-10-08T05:49:25;15.80;74.20
6752;DHT22;3413;47.680;9.166;2023-10-08T05:54:27;15.80;74.20
6752;DHT22;3413;47.680;9.166;2023-10-08T05:59:33;15.80;74.30
6752;DHT22;3413;47.680;9.166;2023-10-08T06:04:57;15.80;74.30
6752;DHT22;3413;47.680;9.166;2023-10-08T06:10:15;15.80;74.30
6752;DHT22;3413;47.680;9.166;2023-10-08T06:15:42;15.80;74.30
6752;DHT22;3413;47.680;9.166;2023-10-08T06:20:55;15.80;74.40
6752;DHT22;3413;47.680;9.166;2023-10-08T06:25:57;15.80;74.50
6752;DHT22;3413;47.680;9.166;2023-10-08T06:31:07;15.90;74.70
6752;DHT22;3413;47.680;9.166;2023-10-08T06:36:13;15.90;74.80
6752;DHT22;3413;47.680;9.166;2023-10-08T06:41:17;16.00;74.90
6752;DHT22;3413;47.680;9.166;2023-10-08T06:46:40;16.10;75.00
6752;DHT22;3413;47.680;9.166;2023-10-08T06:51:42;16.30;75.30
6752;DHT22;3413;47.680;9.166;2023-10-08T06:56:46;16.30;75.30
6752;DHT22;3413;47.680;9.166;2023-10-08T07:01:57;16.40;75.50
6752;DHT22;3413;47.680;9.166;2023-10-08T07:07:00;16.60;75.70
6752;DHT22;3413;47.680;9.166;2023-10-08T07:12:02;16.70;75.90
6752;DHT22;3413;47.680;9.166;2023-10-08T07:17:08;16.80;76.10
6752;DHT22;3413;47.680;9.166;2023-10-08T07:22:10;16.90;76.30
6752;DHT22;3413;47.680;9.166;2023-10-08T07:27:31;16.90;76.30
6752;DHT22;3413;47.680;9.166;2023-10-08T07:32:34;17.00;76.50
6752;DHT22;3413;47.680;9.166;2023-10-08T07:37:36;17.10;76.70
6752;DHT22;3413;47.680;9.166;2023-10-08T07:42:39;17.20;76.90
6752;DHT22;3413;47.680;9.166;2023-10-08T07:47:41;17.40;77.10
6752;DHT22;3413;47.680;9.166;2023-10-08T07:52:50;17.50;77.10
6752;DHT22;3413;47.680;9.166;2023-10-08T07:57:53;17.80;77.40
6752;DHT22;3413;47.680;9.166;2023-10-08T08:02:55;17.90;78.10
6752;DHT22;3413;47.680;9.166;2023-10-08T08:07:58;18.30;77.70
6752;DHT22;3413;47.680;9.166;2023-10-08T08:13:07;18.80;77.90
6752;DHT22;3413;47.680;9.166;2023-10-08T08:18:10;19.30;79.20
6752;DHT22;3413;47.680;9.166;2023-10-08T08:23:24;20.10;80.30
6752;DHT22;3413;47.680;9.166;2023-10-08T08:28:26;21.10;81.20
6752;DHT22;3413;47.680;9.166;2023-10-08T08:33:31;21.60;81.70
6752;DHT22;3413;47.680;9.166;2023-10-08T08:38:53;22.30;82.20
6752;DHT22;3413;47.680;9.166;2023-10-08T08:43:55;23.00;82.50
6752;DHT22;3413;47.680;9.166;2023-10-08T08:49:06;23.70;82.30
6752;DHT22;3413;47.680;9.166;2023-10-08T08:54:13;24.20;82.90
6752;DHT22;3413;47.680;9.166;2023-10-08T08:59:18;24.60;83.00
6752;DHT22;3413;47.680;9.166;2023-10-08T09:04:31;25.30;83.00
6752;DHT22;3413;47.680;9.166;2023-10-08T09:09:35;25.70;82.60
6752;DHT22;3413;47.680;9.166;2023-10-08T09:14:42;25.70;83.10
6752;DHT22;3413;47.680;9.166;2023-10-08T09:19:46;26.20;82.60
6752;DHT22;3413;47.680;9.166;2023-10-08T09:24:49;26.40;82.40
6752;DHT22;3413;47.680;9.166;2023-10-08T09:29:50;26.40;82.50
6752;DHT22;3413;47.680;9.166;2023-10-08T09:34:53;26.70;82.20
6752;DHT22;3413;47.680;9.166;2023-10-08T09:39:56;26.60;81.90
6752;DHT22;3413;47.680;9.166;2023-10-08T09:44:58;26.50;82.00
6752;DHT22;3413;47.680;9.166;2023-10-08T09:50:05;26.70;81.60
6752;DHT22;3413;47.680;9.166;2023-10-08T09:55:13;27.10;80.10
6752;DHT22;3413;47.680;9.166;2023-10-08T10:00:19;27.00;79.50
6752;DHT22;3413;47.680;9.166;2023-10-08T10:05:33;27.10;79.60
6752;DHT22;3413;47.680;9.166;2023-10-08T10:10:38;27.20;79.20
6752;DHT22;3413;47.680;9.166;2023-10-08T10:15:42;27.30;78.00
6752;DHT22;3413;47.680;9.166;2023-10-08T10:31:33;27.00;77.40
6752;DHT22;3413;47.680;9.166;2023-10-08T10:36:48;26.90;77.10
6752;DHT22;3413;47.680;9.166;2023-10-08T10:41:54;26.70;77.40
6752;DHT22;3413;47.680;9.166;2023-10-08T10:47:02;26.80;77.00
6752;DHT22;3413;47.680;9.166;2023-10-08T10:52:30;27.00;77.30
6752;DHT22;3413;47.680;9.166;2023-10-08T10:57:58;27.20;77.10
6752;DHT22;3413;47.680;9.166;2023-10-08T11:03:13;26.80;76.70
6752;DHT22;3413;47.680;9.166;2023-10-08T11:08:32;26.70;77.10
6752;DHT22;3413;47.680;9.166;2023-10-08T11:13:45;26.90;77.30
6752;DHT22;3413;47.680;9.166;2023-10-08T11:18:55;27.10;77.10
6752;DHT22;3413;47.680;9.166;2023-10-08T11:24:08;27.10;76.40
6752;DHT22;3413;47.680;9.166;2023-10-08T11:29:14;27.20;76.80
6752;DHT22;3413;47.680;9.166;2023-10-08T11:34:48;27.20;77.20
6752;DHT22;3413;47.680;9.166;2023-10-08T11:39:52;27.10;77.40
6752;DHT22;3413;47.680;9.166;2023-10-08T11:44:54;26.80;77.60
6752;DHT22;3413;47.680;9.166;2023-10-08T11:49:58;26.80;77.70
6752;DHT22;3413;47.680;9.166;2023-10-08T11:55:12;26.90;77.70
6752;DHT22;3413;47.680;9.166;2023-10-08T12:00:20;27.30;76.80
6752;DHT22;3413;47.680;9.166;2023-10-08T12:05:34;27.40;76.70
6752;DHT22;3413;47.680;9.166;2023-10-08T12:10:45;27.60;76.30
6752;DHT22;3413;47.680;9.166;2023-10-08T12:16:00;27.40;76.10
6752;DHT22;3413;47.680;9.166;2023-10-08T12:21:11;27.30;75.90
6752;DHT22;3413;47.680;9.166;2023-10-08T12:26:20;27.00;76.10
6752;DHT22;3413;47.680;9.166;2023-10-08T12:31:24;27.10;76.20
6752;DHT22;3413;47.680;9.166;2023-10-08T12:36:27;27.10;76.20
6752;DHT22;3413;47.680;9.166;2023-10-08T12:41:44;27.30;76.00
6752;DHT22;3413;47.680;9.166;2023-10-08T12:46:49;27.40;75.50
6752;DHT22;3413;47.680;9.166;2023-10-08T12:52:00;27.40;75.00
6752;DHT22;3413;47.680;9.166;2023-10-08T12:57:13;27.30;74.70
6752;DHT22;3413;47.680;9.166;2023-10-08T13:02:21;27.30;75.00
6752;DHT22;3413;47.680;9.166;2023-10-08T13:07:39;27.40;75.10
6752;DHT22;3413;47.680;9.166;2023-10-08T13:12:44;27.50;75.00
6752;DHT22;3413;47.680;9.166;2023-10-08T13:18:11;27.70;74.90
6752;DHT22;3413;47.680;9.166;2023-10-08T13:23:17;27.80;74.40
6752;DHT22;3413;47.680;9.166;2023-10-08T13:28:22;27.60;74.50
6752;DHT22;3413;47.680;9.166;2023-10-08T13:33:28;27.60;74.60
6752;DHT22;3413;47.680;9.166;2023-10-08T13:38:33;27.50;74.50
6752;DHT22;3413;47.680;9.166;2023-10-08T13:43:38;27.60;74.50
6752;DHT22;3413;47.680;9.166;2023-10-08T13:48:49;27.60;74.20
6752;DHT22;3413;47.680;9.166;2023-10-08T13:54:09;27.40;74.10
6752;DHT22;3413;47.680;9.166;2023-10-08T13:59:12;27.30;73.80
6752;DHT22;3413;47.680;9.166;2023-10-08T14:04:30;27.10;73.70
6752;DHT22;3413;47.680;9.166;2023-10-08T14:09:35;26.90;73.90
6752;DHT22;3413;47.680;9.166;2023-10-08T14:14:50;26.90;74.20
6752;DHT22;3413;47.680;9.166;2023-10-08T14:19:57;26.90;74.30
6752;DHT22;3413;47.680;9.166;2023-10-08T14:25:21;26.80;74.40
6752;DHT22;3413;47.680;9.166;2023-10-08T14:30:32;26.70;74.60
6752;DHT22;3413;47.680;9.166;2023-10-08T14:35:37;26.60;74.60
6752;DHT22;3413;47.680;9.166;2023-10-08T14:40:57;26.60;74.70
6752;DHT22;3413;47.680;9.166;2023-10-08T14:46:18;26.60;74.60
6752;DHT22;3413;47.680;9.166;2023-10-08T14:51:21;26.60;74.30
6752;DHT22;3413;47.680;9.166;2023-10-08T14:56:26;26.70;74.10
6752;DHT22;3413;47.680;9.166;2023-10-08T15:01:31;26.70;73.90
6752;DHT22;3413;47.680;9.166;2023-10-08T15:06:37;26.50;74.50
6752;DHT22;3413;47.680;9.166;2023-10-08T15:11:40;26.40;73.80
6752;DHT22;3413;47.680;9.166;2023-10-08T15:16:42;26.40;73.70
6752;DHT22;3413;47.680;9.166;2023-10-08T15:21:46;26.40;73.60
6752;DHT22;3413;47.680;9.166;2023-10-08T15:26:52;26.40;73.70
6752;DHT22;3413;47.680;9.166;2023-10-08T15:31:57;26.40;73.80
6752;DHT22;3413;47.680;9.166;2023-10-08T15:37:03;26.40;73.90
6752;DHT22;3413;47.680;9.166;2023-10-08T15:42:05;26.40;73.80
6752;DHT22;3413;47.680;9.166;2023-10-08T15:47:07;26.40;73.80
6752;DHT22;3413;47.680;9.166;2023-10-08T15:52:08;26.40;73.60
6752;DHT22;3413;47.680;9.166;2023-10-08T15:57:10;26.40;73.60
6752;DHT22;3413;47.680;9.166;2023-10-08T16:02:12;26.40;73.40
6752;DHT22;3413;47.680;9.166;2023-10-08T16:07:15;26.40;73.40
6752;DHT22;3413;47.680;9.166;2023-10-08T16:12:17;26.40;73.40
6752;DHT22;3413;47.680;9.166;2023-10-08T16:17:19;26.30;73.30
6752;DHT22;3413;47.680;9.166;2023-10-08T16:22:22;26.40;73.20
6752;DHT22;3413;47.680;9.166;2023-10-08T16:27:24;26.40;73.00
6752;DHT22;3413;47.680;9.166;2023-10-08T16:32:26;26.40;73.00
6752;DHT22;3413;47.680;9.166;2023-10-08T16:37:28;26.40;72.90
6752;DHT22;3413;47.680;9.166;2023-10-08T16:42:30;26.20;73.00
6752;DHT22;3413;47.680;9.166;2023-10-08T16:47:33;26.00;73.00
6752;DHT22;3413;47.680;9.166;2023-10-08T16:52:35;25.90;73.10
6752;DHT22;3413;47.680;9.166;2023-10-08T16:57:37;25.80;73.00
6752;DHT22;3413;47.680;9.166;2023-10-08T17:02:39;25.70;73.00
6752;DHT22;3413;47.680;9.166;2023-10-08T17:07:43;25.60;73.00
6752;DHT22;3413;47.680;9.166;2023-10-08T17:12:47;25.50;72.90
6752;DHT22;3413;47.680;9.166;2023-10-08T17:17:53;25.40;72.90
6752;DHT22;3413;47.680;9.166;2023-10-08T17:22:55;25.30;72.90
6752;DHT22;3413;47.680;9.166;2023-10-08T17:27:57;25.20;72.90
6752;DHT22;3413;47.680;9.166;2023-10-08T17:32:59;25.10;72.80
6752;DHT22;3413;47.680;9.166;2023-10-08T17:38:01;25.10;72.70
6752;DHT22;3413;47.680;9.166;2023-10-08T17:43:04;24.90;72.70
6752;DHT22;3413;47.680;9.166;2023-10-08T17:48:07;24.80;72.70
6752;DHT22;3413;47.680;9.166;2023-10-08T17:53:10;24.60;72.60
6752;DHT22;3413;47.680;9.166;2023-10-08T17:58:12;24.50;72.50
6752;DHT22;3413;47.680;9.166;2023-10-08T18:03:17;24.40;72.50
6752;DHT22;3413;47.680;9.166;2023-10-08T18:08:19;24.20;72.40
6752;DHT22;3413;47.680;9.166;2023-10-08T18:13:21;24.10;73.10
6752;DHT22;3413;47.680;9.166;2023-10-08T18:18:23;23.80;72.20
6752;DHT22;3413;47.680;9.166;2023-10-08T18:23:30;23.60;72.20
6752;DHT22;3413;47.680;9.166;2023-10-08T18:28:33;23.40;72.30
6752;DHT22;3413;47.680;9.166;2023-10-08T18:33:38;23.20;72.10
6752;DHT22;3413;47.680;9.166;2023-10-08T18:38:41;23.00;72.10
6752;DHT22;3413;47.680;9.166;2023-10-08T18:43:43;22.70;72.10
6752;DHT22;3413;47.680;9.166;2023-10-08T18:48:45;22.30;72.00
6752;DHT22;3413;47.680;9.166;2023-10-08T18:53:48;22.20;72.10
6752;DHT22;3413;47.680;9.166;2023-10-08T18:58:52;22.10;72.40
6752;DHT22;3413;47.680;9.166;2023-10-08T19:03:54;22.00;71.80
6752;DHT22;3413;47.680;9.166;2023-10-08T19:08:57;21.90;71.80
6752;DHT22;3413;47.680;9.166;2023-10-08T19:14:01;21.70;71.80
6752;DHT22;3413;47.680;9.166;2023-10-08T19:19:05;21.60;71.80
6752;DHT22;3413;47.680;9.166;2023-10-08T19:24:10;21.50;71.80
6752;DHT22;3413;47.680;9.166;2023-10-08T19:29:12;21.30;71.70
6752;DHT22;3413;47.680;9.166;2023-10-08T19:34:14;21.30;71.80
6752;DHT22;3413;47.680;9.166;2023-10-08T19:39:16;21.20;71.70
6752;DHT22;3413;47.680;9.166;2023-10-08T19:44:19;21.20;71.80
6752;DHT22;3413;47.680;9.166;2023-10-08T19:49:21;21.10;71.70
6752;DHT22;3413;47.680;9.166;2023-10-08T19:54:23;21.00;71.60
6752;DHT22;3413;47.680;9.166;2023-10-08T19:59:27;20.90;71.70
6752;DHT22;3413;47.680;9.166;2023-10-08T20:04:29;20.80;71.60
6752;DHT22;3413;47.680;9.166;2023-10-08T20:09:31;20.80;71.80
6752;DHT22;3413;47.680;9.166;2023-10-08T20:14:33;20.70;71.80
6752;DHT22;3413;47.680;9.166;2023-10-08T20:19:36;20.60;71.70
6752;DHT22;3413;47.680;9.166;2023-10-08T20:24:38;20.50;71.80
6752;DHT22;3413;47.680;9.166;2023-10-08T20:29:40;20.30;71.80
6752;DHT22;3413;47.680;9.166;2023-10-08T20:34:42;20.20;71.80
6752;DHT22;3413;47.680;9.166;2023-10-08T20:39:44;20.20;71.80
6752;DHT22;3413;47.680;9.166;2023-10-08T20:44:46;20.10;71.70
6752;DHT22;3413;47.680;9.166;2023-10-08T20:49:48;20.10;71.80
6752;DHT22;3413;47.680;9.166;2023-10-08T20:54:51;20.00;71.80
6752;DHT22;3413;47.680;9.166;2023-10-08T20:59:53;19.90;71.80
6752;DHT22;3413;47.680;9.166;2023-10-08T21:04:56;19.90;71.90
6752;DHT22;3413;47.680;9.166;2023-10-08T21:10:02;19.80;71.90
6752;DHT22;3413;47.680;9.166;2023-10-08T21:15:06;19.70;71.90
6752;DHT22;3413;47.680;9.166;2023-10-08T21:20:10;19.60;71.80
6752;DHT22;3413;47.680;9.166;2023-10-08T21:25:15;19.40;71.90
6752;DHT22;3413;47.680;9.166;2023-10-08T21:30:21;19.30;71.80
6752;DHT22;3413;47.680;9.166;2023-10-08T21:35:23;19.30;71.90
6752;DHT22;3413;47.680;9.166;2023-10-08T21:40:25;19.20;71.90
6752;DHT22;3413;47.680;9.166;2023-10-08T21:45:27;19.20;71.90
6752;DHT22;3413;47.680;9.166;2023-10-08T21:50:29;19.10;72.00
6752;DHT22;3413;47.680;9.166;2023-10-08T21:55:33;19.10;72.00
6752;DHT22;3413;47.680;9.166;2023-10-08T22:00:34;19.10;71.90
6752;DHT22;3413;47.680;9.166;2023-10-08T22:05:46;19.00;71.90
6752;DHT22;3413;47.680;9.166;2023-10-08T22:10:48;18.90;71.90
6752;DHT22;3413;47.680;9.166;2023-10-08T22:15:50;18.90;72.00
6752;DHT22;3413;47.680;9.166;2023-10-08T22:20:56;18.90;72.00
6752;DHT22;3413;47.680;9.166;2023-10-08T22:26:09;18.90;72.00
6752;DHT22;3413;47.680;9.166;2023-10-08T22:31:13;18.80;71.90
6752;DHT22;3413;47.680;9.166;2023-10-08T22:36:17;18.70;71.90
6752;DHT22;3413;47.680;9.166;2023-10-08T22:41:22;18.80;72.20
6752;DHT22;3413;47.680;9.166;2023-10-08T22:46:25;18.60;71.90
6752;DHT22;3413;47.680;9.166;2023-10-08T22:51:27;18.60;72.00
6752;DHT22;3413;47.680;9.166;2023-10-08T22:56:29;18.60;72.00
6752;DHT22;3413;47.680;9.166;2023-10-08T23:01:33;18.50;72.10
6752;DHT22;3413;47.680;9.166;2023-10-08T23:06:35;18.40;72.00
6752;DHT22;3413;47.680;9.166;2023-10-08T23:11:37;18.40;72.20
6752;DHT22;3413;47.680;9.166;2023-10-08T23:16:42;18.40;72.20
6752;DHT22;3413;47.680;9.166;2023-10-08T23:21:45;18.40;72.20
6752;DHT22;3413;47.680;9.166;2023-10-08T23:26:47;18.30;72.10
6752;DHT22;3413;47.680;9.166;2023-10-08T23:31:49;18.30;72.10
6752;DHT22;3413;47.680;9.166;2023-10-08T23:36:51;18.30;72.10
6752;DHT22;3413;47.680;9.166;2023-10-08T23:41:57;18.20;72.10
6752;DHT22;3413;47.680;9.166;2023-10-08T23:47:05;18.10;72.10
6752;DHT22;3413;47.680;9.166;2023-10-08T23:52:11;18.00;72.10
6752;DHT22;3413;47.680;9.166;2023-10-08T23:57:12;18.00;72.10
